createdAt,value
2022-09-04T10:36:31.009Z,2.10
2022-09-04T10:41:15.060Z,2.20
2022-09-04T10:45:46.401Z,2.55
2022-09-04T10:50:22.268Z,2.20
2022-09-04T10:55:04.332Z,2.35
2022-09-04T10:59:59.274Z,2.10
2022-09-04T11:04:45.865Z,2.13
2022-09-04T11:09:50.059Z,2.20
2022-09-04T11:14:28.932Z,2.20
2022-09-04T11:19:04.400Z,2.22
2022-09-04T11:23:42.775Z,2.17
2022-09-04T11:33:04.202Z,2.00
2022-09-04T11:37:37.967Z,1.77
2022-09-04T11:42:20.502Z,1.83
2022-09-04T11:47:34.972Z,2.35
2022-09-04T11:52:07.962Z,1.77
2022-09-04T11:57:02.585Z,1.90
2022-09-04T12:01:32.180Z,1.75
2022-09-04T12:06:11.351Z,2.00
2022-09-04T12:10:44.792Z,1.80
2022-09-04T12:15:27.082Z,1.90
2022-09-04T12:19:50.644Z,1.98
2022-09-04T12:24:31.018Z,1.90
2022-09-04T12:29:11.011Z,1.77
2022-09-04T12:34:01.693Z,1.90
2022-09-04T12:38:27.992Z,2.05
2022-09-04T12:43:00.149Z,2.08
2022-09-04T12:47:41.635Z,1.95
2022-09-04T12:52:21.951Z,1.85
2022-09-04T12:56:41.426Z,2.20
2022-09-04T13:01:32.239Z,1.70
2022-09-04T13:06:15.378Z,1.92
2022-09-04T13:10:54.416Z,2.55
2022-09-04T13:15:36.559Z,2.00
2022-09-04T13:20:20.493Z,2.00
2022-09-04T13:25:02.686Z,1.95
2022-09-04T13:29:44.432Z,1.83
2022-09-04T13:34:13.954Z,1.85
2022-09-04T13:39:07.751Z,1.90
2022-09-04T13:43:49.662Z,1.98
2022-09-04T13:48:12.353Z,1.67
2022-09-04T13:52:46.216Z,2.08
2022-09-04T13:57:10.594Z,1.85
2022-09-04T14:01:29.867Z,2.40
2022-09-04T14:05:50.206Z,1.75
2022-09-04T14:10:22.853Z,1.83
2022-09-04T14:15:02.198Z,1.70
2022-09-04T14:19:32.136Z,1.83
2022-09-04T14:24:08.159Z,2.20
2022-09-04T14:29:11.115Z,2.00
2022-09-04T14:33:51.302Z,1.80
2022-09-04T14:38:36.405Z,1.95
2022-09-04T14:43:08.453Z,1.80
2022-09-04T14:47:33.384Z,1.98
2022-09-04T14:51:56.547Z,1.80
2022-09-04T14:56:19.452Z,1.90
2022-09-04T15:01:03.293Z,1.80
2022-09-04T15:05:34.161Z,2.30
2022-09-04T15:09:54.731Z,1.80
2022-09-04T15:14:33.127Z,2.25
2022-09-04T15:19:31.066Z,2.03
2022-09-04T15:24:09.610Z,1.60
2022-09-04T15:28:49.996Z,1.80
2022-09-04T15:33:11.485Z,1.83
2022-09-04T15:37:29.015Z,2.25
2022-09-04T15:41:49.923Z,2.05
2022-09-04T15:46:25.498Z,2.40
2022-09-04T15:51:18.864Z,2.50
2022-09-04T15:55:39.237Z,2.28
2022-09-04T16:00:00.591Z,2.53
2022-09-04T16:04:33.552Z,2.88
2022-09-04T16:08:58.956Z,2.63
2022-09-04T16:13:25.482Z,2.80
2022-09-04T16:17:47.768Z,2.40
2022-09-04T16:22:07.274Z,2.20
2022-09-04T16:26:28.843Z,2.28
2022-09-04T16:31:10.531Z,2.53
2022-09-04T16:35:34.555Z,2.45
2022-09-04T16:40:12.978Z,2.40
2022-09-04T16:44:53.707Z,2.65
2022-09-04T16:49:36.743Z,2.60
2022-09-04T16:54:32.145Z,2.90
2022-09-04T16:58:54.949Z,2.50
2022-09-04T17:03:26.412Z,2.50
2022-09-04T17:08:07.641Z,3.20
2022-09-04T17:12:57.716Z,2.95
2022-09-04T17:28:59.006Z,6.03
2022-09-04T17:29:09.937Z,7.82
2022-09-04T17:32:33.661Z,12.05
2022-09-04T17:40:54.604Z,11.45
2022-09-04T17:42:04.514Z,10.93
2022-09-04T17:47:09.935Z,7.00
2022-09-04T17:51:32.102Z,6.15
2022-09-04T17:55:58.358Z,5.22
2022-09-04T18:00:25.983Z,5.80
2022-09-04T18:04:57.674Z,5.68
2022-09-04T18:09:26.493Z,4.90
2022-09-04T18:14:31.960Z,5.80
2022-09-04T18:18:55.405Z,4.50
2022-09-04T18:23:23.680Z,4.82
2022-09-04T18:28:11.746Z,4.50
2022-09-04T18:37:22.868Z,4.70
2022-09-04T18:37:47.342Z,4.40
2022-09-04T18:50:32.099Z,5.07
2022-09-04T18:50:40.153Z,5.15
2022-09-04T18:52:00.478Z,5.05
2022-09-04T18:56:23.012Z,4.90
2022-09-04T19:00:54.995Z,5.25
2022-09-04T19:05:15.806Z,5.47
2022-09-04T19:10:05.336Z,5.72
2022-09-04T19:14:28.706Z,5.70
2022-09-04T19:19:34.249Z,5.97
2022-09-04T19:24:05.219Z,5.40
2022-09-04T19:28:28.553Z,5.78
2022-09-04T19:33:15.748Z,5.20
2022-09-04T19:40:39.762Z,5.60
2022-09-04T19:46:07.639Z,5.30
2022-09-04T19:47:49.052Z,5.65
2022-09-04T19:53:23.933Z,5.32
2022-09-04T19:57:32.539Z,5.57
2022-09-04T20:02:03.028Z,5.20
2022-09-04T20:06:34.804Z,5.57
2022-09-04T20:11:00.931Z,5.25
2022-09-04T20:15:25.978Z,6.00
2022-09-04T20:19:52.735Z,5.65
2022-09-04T20:24:21.936Z,5.40
2022-09-04T20:29:11.257Z,5.78
2022-09-04T20:33:31.704Z,5.83
2022-09-04T20:37:58.978Z,5.90
2022-09-04T20:42:46.476Z,6.17
2022-09-04T20:52:42.254Z,6.40
2022-09-04T20:52:55.882Z,6.38
2022-09-04T20:58:50.970Z,6.75
2022-09-04T21:03:22.526Z,6.50
2022-09-04T21:07:07.675Z,6.90
2022-09-04T21:16:31.732Z,7.45
2022-09-04T21:20:59.829Z,7.78
2022-09-04T21:25:31.520Z,8.07
2022-09-04T21:30:14.521Z,7.60
2022-09-04T21:35:02.242Z,9.13
2022-09-04T21:39:28.785Z,7.95
2022-09-04T21:43:59.957Z,8.68
2022-09-04T21:48:58.325Z,8.43
2022-09-04T21:53:48.868Z,8.32
2022-09-04T22:02:39.895Z,8.48
2022-09-04T22:03:49.885Z,8.40
2022-09-04T22:13:08.359Z,8.85
2022-09-04T22:13:47.902Z,8.88
2022-09-04T22:18:46.140Z,8.63
2022-09-04T22:23:47.300Z,9.27
2022-09-04T22:28:31.553Z,8.90
2022-09-04T22:32:51.798Z,9.10
2022-09-04T22:37:27.294Z,10.00
2022-09-04T22:42:09.105Z,9.35
2022-09-04T22:46:46.270Z,10.35
2022-09-04T22:51:40.966Z,9.52
2022-09-04T22:56:22.573Z,9.63
2022-09-04T23:01:06.461Z,9.73
2022-09-04T23:05:42.971Z,9.90
2022-09-04T23:13:46.185Z,10.50
2022-09-04T23:15:09.064Z,10.25
2022-09-04T23:26:37.383Z,10.18
2022-09-04T23:26:52.824Z,9.40
2022-09-04T23:29:41.033Z,10.68
2022-09-04T23:34:07.895Z,10.33
2022-09-04T23:38:27.822Z,11.15
2022-09-04T23:43:12.224Z,11.15
2022-09-04T23:47:48.349Z,11.77
2022-09-04T23:52:32.101Z,11.13
2022-09-04T23:56:57.427Z,11.48
